Time;durP1;ratioP1;P1;durP2;ratioP2;P2;SDS_P1;SDS_P2;PMS_P1;PMS_P2;Temp;Humidity;BMP_temperature;BMP_pressure;BME280_temperature;BME280_humidity;BME280_pressure;Samples;Min_cycle;Max_cycle;Signal;HPM_P1;HPM_P2
2022/10/13 00:09:48;;;;;;;0.75;0.65;;;;;;;12.85;68.15;101353.69;18364236;32;20107;-57
2022/10/13 00:19:51;;;;;;;1.35;1.10;;;;;;;13.00;68.45;101350.25;18364290;32;20410;-57
2022/10/13 00:29:56;;;;;;;0.93;0.88;;;;;;;12.92;69.03;101352.84;18282623;32;20094;-58
2022/10/13 00:39:59;;;;;;;1.60;1.10;;;;;;;13.18;68.12;101349.41;18265257;32;20119;-57
2022/10/13 00:50:05;;;;;;;4.57;1.08;;;;;;;12.96;68.43;101353.72;18264806;32;20094;-57
2022/10/13 01:00:10;;;;;;;1.48;1.02;;;;;;;12.63;70.21;101330.03;18265130;32;20351;-56
2022/10/13 01:10:23;;;;;;;0.70;0.70;;;;;;;12.94;68.89;101329.25;18297155;32;20113;-57
2022/10/13 01:20:41;;;;;;;0.60;0.60;;;;;;;12.83;68.90;101331.84;18299405;32;20115;-57
2022/10/13 01:30:47;;;;;;;0.95;0.95;;;;;;;12.87;68.49;101333.62;18289254;32;20105;-57
2022/10/13 01:40:54;;;;;;;0.57;0.57;;;;;;;12.80;68.59;101322.22;18270756;32;20093;-57
2022/10/13 01:50:59;;;;;;;2.15;1.55;;;;;;;12.82;68.34;101337.97;18249461;32;20102;-57
2022/10/13 02:01:10;;;;;;;0.50;0.50;;;;;;;12.74;68.46;101327.47;18241319;32;20494;-57
2022/10/13 02:11:17;;;;;;;1.85;1.65;;;;;;;12.65;68.74;101323.03;18242042;32;20113;-57
2022/10/13 02:21:20;;;;;;;0.60;0.60;;;;;;;12.58;69.77;101327.38;18242120;32;20106;-56
2022/10/13 02:31:25;;;;;;;0.47;0.47;;;;;;;12.74;69.46;101330.06;18240638;32;20082;-56
2022/10/13 02:41:28;;;;;;;0.60;0.60;;;;;;;12.76;70.14;101325.72;18241438;32;20177;-57
2022/10/13 02:51:33;;;;;;;0.75;0.75;;;;;;;12.92;70.59;101317.91;18241020;32;20152;-56
2022/10/13 03:01:43;;;;;;;0.60;0.60;;;;;;;13.13;70.10;101317.94;18240016;32;20090;-57
2022/10/13 03:11:47;;;;;;;1.00;0.80;;;;;;;13.17;69.43;101319.69;18239653;32;20113;-57
2022/10/13 03:21:50;;;;;;;1.30;0.70;;;;;;;13.13;69.67;101309.19;18239423;32;20110;-57
2022/10/13 03:31:55;;;;;;;1.30;0.73;;;;;;;13.14;69.22;101314.47;18239111;32;20093;-57
2022/10/13 03:41:58;;;;;;;0.93;0.93;;;;;;;12.94;69.23;101318.78;18238504;32;20106;-57
2022/10/13 03:52:03;;;;;;;0.57;0.57;;;;;;;12.95;69.17;101310.94;18240207;32;20122;-57
2022/10/13 04:02:06;;;;;;;0.40;0.40;;;;;;;12.89;69.16;101303.03;18298658;32;20128;-57
2022/10/13 04:12:11;;;;;;;0.68;0.68;;;;;;;12.56;68.99;101300.31;18300778;32;20098;-57
2022/10/13 04:22:16;;;;;;;1.37;1.17;;;;;;;12.33;69.10;101301.09;18300787;32;20474;-56
2022/10/13 04:32:21;;;;;;;0.50;0.50;;;;;;;12.22;69.01;101300.16;18301083;32;20114;-57
2022/10/13 04:42:24;;;;;;;3.67;1.62;;;;;;;12.24;68.41;101298.44;18299544;32;20370;-57
2022/10/13 04:52:28;;;;;;;0.20;0.20;;;;;;;11.88;69.81;101305.16;18299005;32;20385;-57
2022/10/13 05:02:32;;;;;;;1.30;0.98;;;;;;;11.96;69.52;101306.09;18303131;32;20141;-56
2022/10/13 05:12:36;;;;;;;0.37;0.37;;;;;;;11.98;70.12;101314.81;18280343;32;20370;-57
2022/10/13 05:22:39;;;;;;;0.52;0.52;;;;;;;12.07;69.27;101307.06;18305969;32;20127;-56
2022/10/13 05:32:44;;;;;;;0.50;0.50;;;;;;;11.86;70.37;101313.00;18305348;32;20102;-57
2022/10/13 05:42:47;;;;;;;0.40;0.40;;;;;;;12.14;69.56;101314.94;18304402;32;20164;-57
2022/10/13 05:52:52;;;;;;;1.10;0.60;;;;;;;12.25;69.97;101317.63;18294085;32;20340;-57
2022/10/13 06:02:57;;;;;;;0.37;0.37;;;;;;;12.42;70.60;101320.31;18241523;32;20102;-56
2022/10/13 06:13:02;;;;;;;1.48;0.85;;;;;;;12.56;70.60;101329.13;18235413;32;20109;-56
2022/10/13 06:23:05;;;;;;;0.50;0.50;;;;;;;12.51;71.21;101336.06;18290625;32;20464;-57
2022/10/13 06:33:09;;;;;;;0.60;0.60;;;;;;;12.32;73.04;101345.59;18304204;32;20401;-56
2022/10/13 06:43:12;;;;;;;0.82;0.82;;;;;;;12.52;73.54;101343.09;18302158;32;20146;-57
2022/10/13 06:53:17;;;;;;;0.45;0.45;;;;;;;12.27;74.49;101349.91;18304325;32;20094;-56
2022/10/13 07:03:21;;;;;;;0.82;0.82;;;;;;;12.40;75.16;101341.28;18268271;32;20490;-58
2022/10/13 07:13:26;;;;;;;0.90;0.82;;;;;;;12.63;74.98;101341.38;18296297;32;20682;-57
2022/10/13 07:23:30;;;;;;;0.40;0.40;;;;;;;13.56;72.51;101340.75;18296417;32;20192;-57
2022/10/13 07:33:34;;;;;;;1.17;0.77;;;;;;;14.07;71.00;101333.72;18301430;32;20881;-57
2022/10/13 07:43:37;;;;;;;4.95;1.40;;;;;;;13.72;72.36;101341.63;18302547;32;20070;-57
2022/10/13 07:53:42;;;;;;;1.05;0.98;;;;;;;14.12;71.62;101340.72;18301436;32;20164;-57
2022/10/13 08:03:46;;;;;;;0.62;0.62;;;;;;;14.55;70.94;101342.34;18300661;32;20128;-56
2022/10/13 08:13:54;;;;;;;0.32;0.32;;;;;;;15.04;69.71;101329.88;18300598;32;20148;-56
2022/10/13 08:23:57;;;;;;;0.88;0.88;;;;;;;15.63;68.62;101326.81;18300941;32;20081;-57
2022/10/13 08:34:02;;;;;;;0.40;0.40;;;;;;;15.60;67.99;101315.44;18272365;32;20180;-56
2022/10/13 08:44:07;;;;;;;0.50;0.50;;;;;;;15.98;66.83;101303.72;18239683;32;20098;-56
2022/10/13 08:54:32;;;;;;;0.47;0.28;;;;;;;16.89;63.74;101292.97;18296572;32;20351;-56
2022/10/13 09:04:38;;;;;;;0.35;0.35;;;;;;;17.54;54.93;101294.63;18281808;32;20350;-56
2022/10/13 09:14:42;;;;;;;0.20;0.20;;;;;;;17.72;51.80;101287.28;18270205;32;20145;-57
2022/10/13 09:24:45;;;;;;;0.28;0.28;;;;;;;18.54;48.86;101277.81;18238055;32;20189;-57
2022/10/13 09:34:50;;;;;;;0.30;0.30;;;;;;;18.93;47.27;101284.84;18286424;32;20506;-57
2022/10/13 09:44:58;;;;;;;0.55;0.20;;;;;;;18.97;48.97;101275.97;18305512;32;20147;-57
2022/10/13 09:55:02;;;;;;;0.40;0.40;;;;;;;19.20;49.43;101268.38;18293953;32;20101;-57
2022/10/13 10:05:14;;;;;;;0.20;0.20;;;;;;;19.13;49.17;101262.38;18307144;32;20130;-57
2022/10/13 10:15:21;;;;;;;0.20;0.20;;;;;;;19.12;48.80;101244.78;18307139;32;20098;-57
2022/10/13 10:25:32;;;;;;;0.55;0.43;;;;;;;18.64;50.96;101232.63;18292935;32;20120;-57
2022/10/13 10:35:43;;;;;;;0.20;0.20;;;;;;;19.61;48.72;101212.63;18306854;32;20101;-57
2022/10/13 10:45:47;;;;;;;0.62;0.32;;;;;;;20.02;48.21;101202.72;18292583;32;20090;-57
2022/10/13 10:55:54;;;;;;;0.20;0.20;;;;;;;20.65;47.16;101191.94;18305394;32;20100;-57
2022/10/13 11:06:02;;;;;;;0.10;0.10;;;;;;;20.90;45.83;101188.53;18301992;32;70805;-57
2022/10/13 11:26:43;;;;;;;0.10;0.10;;;;;;;21.53;43.59;101149.22;18607460;31;79687;-57
2022/10/13 11:36:50;;;;;;;0.32;0.17;;;;;;;21.29;44.19;101147.41;18530396;32;20097;-57
2022/10/13 11:47:02;;;;;;;0.10;0.10;;;;;;;20.95;44.68;101122.03;18544316;32;20088;-57
2022/10/13 11:57:18;;;;;;;0.10;0.10;;;;;;;20.71;46.63;101115.75;18544610;32;20141;-57
2022/10/13 12:07:23;;;;;;;0.20;0.20;;;;;;;21.29;44.20;101102.25;18544272;32;20092;-57
2022/10/13 12:17:30;;;;;;;0.10;0.10;;;;;;;21.14;45.57;101093.06;18543425;32;20377;-57
2022/10/13 12:27:44;;;;;;;0.10;0.10;;;;;;;20.20;47.67;101083.78;18543763;32;20111;-57
2022/10/13 12:37:47;;;;;;;0.47;0.47;;;;;;;20.75;44.86;101078.47;18500481;32;20088;-57
2022/10/13 12:47:53;;;;;;;0.10;0.10;;;;;;;20.99;45.65;101067.94;18500480;32;20136;-57
2022/10/13 12:57:56;;;;;;;0.20;0.20;;;;;;;21.33;44.07;101060.53;18499220;32;20081;-57
2022/10/13 13:08:01;;;;;;;0.20;0.20;;;;;;;20.41;45.23;101052.22;18439873;32;20408;-57
2022/10/13 13:18:30;;;;;;;0.85;0.47;;;;;;;21.53;42.96;101046.50;18452355;32;20100;-57
2022/10/13 13:28:35;;;;;;;0.00;0.00;;;;;;;21.75;43.80;101038.62;18498521;32;20107;-57
2022/10/13 13:38:38;;;;;;;0.50;0.20;;;;;;;21.91;43.31;101022.09;18450231;32;20111;-57
2022/10/13 13:48:42;;;;;;;0.10;0.10;;;;;;;21.65;42.43;101021.28;18432089;32;20154;-57
2022/10/13 13:58:47;;;;;;;0.73;0.30;;;;;;;22.06;41.70;101015.28;18437368;32;20106;-57
2022/10/13 14:08:51;;;;;;;0.10;0.10;;;;;;;21.71;42.37;101002.44;18495811;32;20703;-57
2022/10/13 14:18:56;;;;;;;0.10;0.10;;;;;;;21.94;43.85;100998.03;18494642;32;20081;-57
2022/10/13 14:29:00;;;;;;;0.30;0.30;;;;;;;21.77;43.52;100993.41;18497170;32;20108;-57
2022/10/13 14:39:03;;;;;;;0.00;0.00;;;;;;;21.84;43.34;100992.19;18496266;32;20118;-57
2022/10/13 14:49:10;;;;;;;0.10;0.10;;;;;;;21.44;43.98;100997.28;18494244;32;20126;-57
2022/10/13 14:59:13;;;;;;;0.15;0.15;;;;;;;21.41;43.26;100993.88;18452373;32;20390;-57
2022/10/13 15:09:18;;;;;;;0.85;0.62;;;;;;;20.93;45.04;100986.75;18429611;32;20191;-57
2022/10/13 15:19:27;;;;;;;0.10;0.10;;;;;;;20.77;46.46;100985.53;18429075;32;20395;-57
2022/10/13 15:29:32;;;;;;;0.30;0.30;;;;;;;20.42;49.27;100985.84;18430695;32;20240;-57
2022/10/13 15:39:35;;;;;;;0.15;0.15;;;;;;;19.94;52.05;100984.78;18452434;32;20097;-57
2022/10/13 15:49:39;;;;;;;0.10;0.10;;;;;;;19.48;52.94;100979.97;18492608;32;20158;-57
2022/10/13 15:59:43;;;;;;;0.25;0.25;;;;;;;18.99;55.27;100977.84;18492248;32;20096;-57
2022/10/13 16:09:49;;;;;;;2.45;0.50;;;;;;;18.49;56.22;100975.66;18496210;32;20107;-57
2022/10/13 16:19:52;;;;;;;1.77;0.55;;;;;;;18.09;57.43;100984.59;18500456;32;20143;-56
2022/10/13 16:29:56;;;;;;;0.45;0.22;;;;;;;17.61;58.93;100983.91;18500118;32;20392;-57
2022/10/13 16:39:59;;;;;;;0.28;0.28;;;;;;;17.30;59.41;100985.41;18500690;32;20100;-57
2022/10/13 16:50:08;;;;;;;0.55;0.50;;;;;;;16.96;60.29;100995.75;18499660;32;20097;-56
2022/10/13 17:00:13;;;;;;;0.80;0.77;;;;;;;16.47;61.17;100991.34;18492536;32;20149;-57
2022/10/13 17:10:17;;;;;;;0.47;0.47;;;;;;;16.11;62.00;100996.31;18498992;32;20128;-56
2022/10/13 17:20:20;;;;;;;1.50;0.77;;;;;;;15.78;62.72;101006.44;18498376;32;20172;-56
2022/10/13 17:30:25;;;;;;;0.73;0.52;;;;;;;15.68;62.27;101003.94;18497345;32;20114;-57
2022/10/13 17:40:28;;;;;;;0.35;0.35;;;;;;;15.31;63.29;101003.53;18496874;32;20093;-56
2022/10/13 17:50:35;;;;;;;0.88;0.80;;;;;;;15.03;63.42;101010.00;18495540;32;20369;-56
2022/10/13 18:00:38;;;;;;;0.93;0.93;;;;;;;14.77;63.96;101007.66;18470110;32;20432;-56
2022/10/13 18:11:06;;;;;;;3.40;2.17;;;;;;;14.67;63.60;101006.81;18434289;32;20350;-56
2022/10/13 18:21:12;;;;;;;0.82;0.50;;;;;;;14.27;64.72;101001.03;18433415;32;20381;-57
2022/10/13 18:31:18;;;;;;;5.22;2.15;;;;;;;14.07;65.22;101002.94;18431750;32;20093;-56
2022/10/13 18:41:23;;;;;;;1.27;0.68;;;;;;;13.93;64.77;101001.28;18430835;32;20152;-56
2022/10/13 18:51:29;;;;;;;1.10;0.77;;;;;;;13.85;64.74;101000.47;18431689;32;20479;-56
2022/10/13 19:01:39;;;;;;;1.35;1.25;;;;;;;13.67;64.88;101004.06;18426349;32;20101;-57
2022/10/13 19:11:44;;;;;;;0.50;0.50;;;;;;;13.61;64.23;101002.34;18446880;32;20154;-56
2022/10/13 19:21:47;;;;;;;0.68;0.68;;;;;;;13.42;64.44;100999.78;18471948;32;20393;-56
2022/10/13 19:31:51;;;;;;;0.68;0.50;;;;;;;12.99;65.63;100992.94;18455265;32;20145;-56
2022/10/13 19:41:57;;;;;;;0.93;0.88;;;;;;;13.03;65.32;101006.91;18474998;32;20116;-56
2022/10/13 19:52:01;;;;;;;4.35;1.77;;;;;;;12.70;66.09;100998.22;18499173;32;20110;-56
2022/10/13 20:02:04;;;;;;;0.62;0.62;;;;;;;12.67;65.40;100993.00;18498620;32;20490;-56
2022/10/13 20:12:09;;;;;;;0.30;0.30;;;;;;;12.73;64.77;100996.47;18498909;32;20377;-56
2022/10/13 20:22:12;;;;;;;0.50;0.50;;;;;;;12.41;65.62;101004.38;18498872;32;20115;-56
2022/10/13 20:32:17;;;;;;;0.88;0.88;;;;;;;12.23;66.13;101008.72;18498660;32;20129;-56
2022/10/13 20:42:20;;;;;;;0.65;0.65;;;;;;;12.06;66.54;101009.59;18496810;32;20101;-56
2022/10/13 20:52:24;;;;;;;0.43;0.43;;;;;;;12.07;66.11;101002.59;18497733;32;20614;-56
2022/10/13 21:02:28;;;;;;;1.87;1.00;;;;;;;11.98;66.09;100999.94;18481139;32;20093;-56
2022/10/13 21:12:32;;;;;;;1.00;1.00;;;;;;;11.90;66.07;101010.41;18268174;32;20136;-56
2022/10/13 21:22:35;;;;;;;2.92;1.90;;;;;;;11.61;65.94;101003.34;18267245;32;20172;-57
2022/10/13 21:32:40;;;;;;;1.25;1.15;;;;;;;11.54;66.39;101004.19;18306642;32;20090;-57
2022/10/13 21:42:43;;;;;;;0.70;0.70;;;;;;;11.43;66.81;100996.28;18306497;32;20763;-57
2022/10/13 21:52:47;;;;;;;1.27;1.20;;;;;;;11.54;65.98;100999.84;18289116;32;20102;-56
2022/10/13 22:02:51;;;;;;;1.77;1.67;;;;;;;11.34;66.19;101000.66;18249456;32;20090;-57
2022/10/13 22:12:56;;;;;;;0.75;0.75;;;;;;;11.27;65.99;101003.22;18242388;32;20156;-57
2022/10/13 22:22:59;;;;;;;3.50;1.65;;;;;;;11.31;65.45;100987.53;18242084;32;20143;-57
2022/10/13 22:33:04;;;;;;;0.80;0.80;;;;;;;10.74;67.55;100988.12;18241789;32;20138;-56
2022/10/13 22:43:07;;;;;;;1.42;1.35;;;;;;;10.90;66.79;100983.84;18241264;32;20134;-56
2022/10/13 22:53:12;;;;;;;0.65;0.65;;;;;;;10.77;67.36;100979.44;18241893;32;20105;-57
2022/10/13 23:03:15;;;;;;;0.90;0.90;;;;;;;10.82;66.83;100978.59;18240297;32;20106;-56
2022/10/13 23:13:19;;;;;;;0.60;0.60;;;;;;;10.78;66.89;100976.84;18239681;32;20160;-56
2022/10/13 23:23:23;;;;;;;0.98;0.77;;;;;;;10.75;66.59;100979.41;18239095;32;20142;-57
2022/10/13 23:33:28;;;;;;;2.35;2.15;;;;;;;10.68;66.61;100980.25;18239046;32;20465;-56
2022/10/13 23:43:31;;;;;;;1.27;1.15;;;;;;;10.45;67.64;100972.25;18239456;32;20102;-57
2022/10/13 23:53:36;;;;;;;0.98;0.93;;;;;;;10.40;68.27;100964.38;18237890;32;20152;-56
